Time;durP1;ratioP1;P1;durP2;ratioP2;P2;SDS_P1;SDS_P2;PMS_P1;PMS_P2;Temp;Humidity;BMP_temperature;BMP_pressure;BME280_temperature;BME280_humidity;BME280_pressure;Samples;Min_cycle;Max_cycle;Signal;HPM_P1;HPM_P2
2022/10/16 00:00:36;;;;;;;14.77;4.68;;;13.30;99.90;;;;;;5069276;28;20051;-77
2022/10/16 00:03:05;;;;;;;9.38;4.35;;;13.30;99.90;;;;;;5063367;28;20041;-79
2022/10/16 00:05:30;;;;;;;8.02;4.35;;;13.20;99.90;;;;;;5054224;28;20029;-77
2022/10/16 00:07:56;;;;;;;8.95;4.13;;;13.20;99.90;;;;;;5063521;28;20029;-77
2022/10/16 00:10:22;;;;;;;6.53;3.88;;;13.20;99.90;;;;;;5045166;28;20057;-76
2022/10/16 00:12:48;;;;;;;6.70;4.20;;;13.20;99.90;;;;;;5063677;28;20029;-76
2022/10/16 00:15:14;;;;;;;13.00;3.97;;;13.10;99.90;;;;;;5063447;28;20021;-77
2022/10/16 00:17:40;;;;;;;10.93;4.15;;;13.10;99.90;;;;;;5063542;28;20420;-75
2022/10/16 00:20:06;;;;;;;6.85;3.53;;;13.10;99.90;;;;;;5063662;28;20028;-77
2022/10/16 00:22:32;;;;;;;11.70;3.65;;;13.10;99.90;;;;;;5062927;28;20097;-75
2022/10/16 00:24:58;;;;;;;9.75;3.72;;;13.10;99.90;;;;;;5045005;28;20083;-76
2022/10/16 00:27:24;;;;;;;10.40;3.88;;;13.00;99.90;;;;;;5045326;28;20021;-78
2022/10/16 00:29:51;;;;;;;6.97;3.28;;;13.00;99.90;;;;;;5053040;28;20029;-76
2022/10/16 00:32:20;;;;;;;7.90;3.60;;;13.00;99.90;;;;;;5062239;28;20025;-78
2022/10/16 00:34:46;;;;;;;9.80;3.63;;;13.00;99.90;;;;;;5062684;28;20025;-76
2022/10/16 00:37:13;;;;;;;7.50;3.38;;;12.90;99.90;;;;;;5063143;28;20033;-77
2022/10/16 00:39:39;;;;;;;6.93;3.33;;;12.90;99.90;;;;;;5062786;28;20025;-76
2022/10/16 00:42:05;;;;;;;5.55;3.05;;;12.90;99.90;;;;;;5053247;28;20079;-77
2022/10/16 00:44:44;;;;;;;8.55;3.60;;;12.80;99.90;;;;;;5062643;28;20025;-78
2022/10/16 00:47:18;;;;;;;9.75;3.70;;;12.80;99.90;;;;;;5061876;28;20060;-78
2022/10/16 00:49:44;;;;;;;15.15;3.83;;;12.80;99.90;;;;;;5053280;28;20698;-76
2022/10/16 00:52:11;;;;;;;8.25;3.42;;;12.80;99.90;;;;;;5061028;28;20043;-79
2022/10/16 00:54:36;;;;;;;7.80;2.97;;;12.70;99.90;;;;;;5033559;28;20121;-75
2022/10/16 00:57:05;;;;;;;6.45;3.17;;;12.70;99.90;;;;;;5023991;28;20041;-76
2022/10/16 00:59:37;;;;;;;8.50;3.35;;;12.70;99.90;;;;;;5024396;28;20061;-76
2022/10/16 01:02:05;;;;;;;12.18;3.47;;;12.70;99.90;;;;;;5048761;28;20037;-75
2022/10/16 01:04:41;;;;;;;9.05;3.63;;;12.70;99.90;;;;;;5042265;28;20068;-75
2022/10/16 01:07:23;;;;;;;6.80;3.25;;;12.60;99.90;;;;;;5042240;28;20018;-76
2022/10/16 01:09:59;;;;;;;7.47;3.15;;;12.60;99.90;;;;;;5042402;28;20074;-76
2022/10/16 01:12:58;;;;;;;9.57;3.30;;;12.60;99.90;;;;;;5016712;28;20043;-75
2022/10/16 01:15:42;;;;;;;9.98;3.15;;;12.60;99.90;;;;;;5042072;28;20100;-77
2022/10/16 01:18:47;;;;;;;10.05;3.35;;;12.50;99.90;;;;;;5042609;28;20081;-75
2022/10/16 01:21:26;;;;;;;7.25;2.95;;;12.50;99.90;;;;;;5041673;28;20040;-76
2022/10/16 01:24:18;;;;;;;7.63;3.30;;;12.50;99.90;;;;;;5024184;28;20037;-79
2022/10/16 01:27:11;;;;;;;8.00;2.90;;;12.50;99.90;;;;;;5032736;28;20098;-76
2022/10/16 01:29:45;;;;;;;7.85;3.50;;;12.50;99.90;;;;;;5042024;28;20099;-75
2022/10/16 01:32:36;;;;;;;12.80;3.40;;;12.40;99.90;;;;;;5041613;28;20079;-77
2022/10/16 01:35:04;;;;;;;8.10;3.45;;;12.40;99.90;;;;;;5041633;28;20430;-76
2022/10/16 01:37:39;;;;;;;7.05;2.92;;;12.40;99.90;;;;;;5041692;28;20030;-77
2022/10/16 01:40:10;;;;;;;5.20;2.60;;;12.40;99.90;;;;;;5042228;28;20029;-78
2022/10/16 01:42:49;;;;;;;6.05;2.60;;;12.30;99.90;;;;;;5041591;28;20040;-78
2022/10/16 01:45:18;;;;;;;8.93;2.42;;;12.30;99.90;;;;;;5041139;28;20064;-78
2022/10/16 01:47:49;;;;;;;10.77;2.83;;;12.30;99.90;;;;;;5040679;28;20472;-78
2022/10/16 01:50:17;;;;;;;10.15;2.30;;;12.30;99.90;;;;;;5031056;28;20041;-78
2022/10/16 01:52:46;;;;;;;7.57;2.75;;;12.30;99.90;;;;;;5041463;28;20025;-78
2022/10/16 01:55:18;;;;;;;11.77;3.38;;;12.30;99.90;;;;;;5022115;28;20042;-79
2022/10/16 01:57:47;;;;;;;9.38;2.47;;;12.20;99.90;;;;;;5041850;28;20044;-77
2022/10/16 02:00:16;;;;;;;3.35;2.45;;;12.20;99.90;;;;;;5041293;28;20034;-78
2022/10/16 02:02:47;;;;;;;3.38;2.15;;;12.20;99.90;;;;;;5023347;28;20041;-78
2022/10/16 02:05:22;;;;;;;10.65;2.72;;;12.10;99.90;;;;;;5041531;28;20026;-76
2022/10/16 02:07:48;;;;;;;7.80;2.30;;;12.10;99.90;;;;;;5039987;28;20093;-78
2022/10/16 02:10:15;;;;;;;5.28;2.38;;;12.10;99.90;;;;;;5041522;28;20053;-78
2022/10/16 02:12:45;;;;;;;5.47;2.22;;;12.00;99.90;;;;;;5014692;28;20030;-79
2022/10/16 02:15:11;;;;;;;5.65;2.42;;;12.00;99.90;;;;;;5041158;28;20035;-78
2022/10/16 02:17:37;;;;;;;13.30;2.67;;;12.00;99.90;;;;;;5014836;28;20089;-78
2022/10/16 02:20:04;;;;;;;4.25;2.33;;;12.00;99.90;;;;;;5023147;28;20035;-76
2022/10/16 02:22:40;;;;;;;3.65;2.10;;;12.00;99.90;;;;;;5040773;28;20202;-78
2022/10/16 02:25:30;;;;;;;9.63;2.80;;;12.00;99.90;;;;;;5041441;28;20374;-77
2022/10/16 02:28:26;;;;;;;6.53;3.03;;;11.90;99.90;;;;;;5021719;28;20053;-78
2022/10/16 02:31:01;;;;;;;9.15;2.95;;;11.90;99.90;;;;;;5040809;28;20093;-78
2022/10/16 02:33:27;;;;;;;;;;;11.90;99.90;;;;;;5047885;28;20026;-77
2022/10/16 02:35:54;;;;;;;7.20;3.00;;;11.90;99.90;;;;;;5040567;28;19949;-77
2022/10/16 02:38:21;;;;;;;5.80;2.85;;;11.90;99.90;;;;;;5048364;28;20033;-77
2022/10/16 02:40:48;;;;;;;5.20;2.88;;;11.90;99.90;;;;;;5041801;28;20028;-77
2022/10/16 02:43:14;;;;;;;5.15;2.67;;;11.90;99.90;;;;;;5038972;28;20442;-79
2022/10/16 02:45:40;;;;;;;8.93;2.58;;;11.90;99.90;;;;;;5032013;28;20046;-79
2022/10/16 02:48:06;;;;;;;5.97;2.63;;;11.90;99.90;;;;;;5020971;28;20041;-78
2022/10/16 02:50:32;;;;;;;7.68;2.47;;;11.80;99.90;;;;;;5019888;28;20037;-78
2022/10/16 02:52:57;;;;;;;8.35;2.20;;;11.90;99.90;;;;;;5020129;28;20105;-77
2022/10/16 02:55:23;;;;;;;8.63;2.92;;;11.80;99.90;;;;;;5003004;28;20030;-78
2022/10/16 02:57:49;;;;;;;6.07;2.85;;;11.90;99.90;;;;;;5019787;28;20022;-77
2022/10/16 03:00:16;;;;;;;6.75;2.80;;;11.80;99.90;;;;;;5011458;28;20157;-76
2022/10/16 03:02:43;;;;;;;13.85;2.90;;;11.80;99.90;;;;;;5020426;28;20065;-77
2022/10/16 03:05:09;;;;;;;3.58;2.35;;;11.80;99.90;;;;;;5021586;28;20037;-79
2022/10/16 03:07:35;;;;;;;3.33;2.25;;;11.80;99.90;;;;;;5024474;28;21002;-79
2022/10/16 03:10:01;;;;;;;6.18;2.88;;;11.80;99.90;;;;;;5024221;28;20030;-78
2022/10/16 03:12:29;;;;;;;9.65;2.42;;;11.80;99.90;;;;;;5024733;28;20057;-79
2022/10/16 03:14:56;;;;;;;10.60;2.72;;;11.80;99.90;;;;;;5024716;28;20022;-80
2022/10/16 03:17:22;;;;;;;5.78;2.47;;;11.80;99.90;;;;;;5015057;28;20471;-78
2022/10/16 03:19:48;;;;;;;4.97;2.47;;;11.70;99.90;;;;;;5023223;28;20161;-79
2022/10/16 03:22:14;;;;;;;2.53;1.83;;;11.80;99.90;;;;;;5024790;28;20042;-78
2022/10/16 03:24:40;;;;;;;5.43;2.65;;;11.80;99.90;;;;;;5024525;28;20202;-78
2022/10/16 03:27:06;;;;;;;8.13;2.60;;;11.80;99.90;;;;;;5023393;28;20022;-78
2022/10/16 03:29:32;;;;;;;5.25;2.42;;;11.80;99.90;;;;;;5024654;28;20026;-77
2022/10/16 03:31:59;;;;;;;4.43;2.30;;;11.80;99.90;;;;;;5023807;28;20398;-77
2022/10/16 03:34:25;;;;;;;5.60;2.85;;;11.80;99.90;;;;;;5024544;28;20028;-77
2022/10/16 03:36:51;;;;;;;4.78;2.63;;;11.80;99.90;;;;;;5024370;28;20025;-77
2022/10/16 03:39:17;;;;;;;7.72;2.42;;;11.80;99.90;;;;;;5024183;28;20025;-79
2022/10/16 03:41:43;;;;;;;6.88;2.88;;;11.80;99.90;;;;;;5006543;28;20025;-78
2022/10/16 03:44:09;;;;;;;6.65;2.65;;;11.80;99.90;;;;;;5023992;28;20168;-79
2022/10/16 03:46:35;;;;;;;5.55;2.78;;;11.80;99.90;;;;;;5003985;28;20073;-77
2022/10/16 03:49:00;;;;;;;4.35;2.50;;;11.80;99.90;;;;;;5024268;28;20033;-79
2022/10/16 03:51:26;;;;;;;7.13;2.17;;;11.80;99.90;;;;;;5023053;28;20080;-77
2022/10/16 03:53:51;;;;;;;9.80;3.08;;;11.80;99.90;;;;;;5023324;28;20081;-77
2022/10/16 03:56:17;;;;;;;5.75;2.75;;;11.80;99.90;;;;;;5006360;28;20025;-77
2022/10/16 03:58:43;;;;;;;11.20;2.90;;;11.80;99.90;;;;;;5015046;28;20022;-77
2022/10/16 04:01:08;;;;;;;9.93;2.90;;;11.80;99.90;;;;;;5023275;28;20062;-76
2022/10/16 04:03:34;;;;;;;9.30;3.78;;;11.80;99.90;;;;;;5023799;28;20105;-76
2022/10/16 04:06:00;;;;;;;7.45;2.65;;;11.80;99.90;;;;;;5024049;28;20052;-78
2022/10/16 04:08:25;;;;;;;6.85;2.75;;;11.80;99.90;;;;;;5023503;28;20025;-76
2022/10/16 04:10:54;;;;;;;6.57;2.80;;;11.80;99.90;;;;;;5022932;28;20029;-77
2022/10/16 04:13:19;;;;;;;6.10;3.25;;;11.80;99.90;;;;;;5023202;28;20026;-76
2022/10/16 04:15:45;;;;;;;10.10;3.83;;;11.70;99.90;;;;;;5023472;28;20028;-78
2022/10/16 04:18:11;;;;;;;10.23;3.17;;;11.80;99.90;;;;;;5005118;28;20430;-76
2022/10/16 04:20:38;;;;;;;7.82;3.50;;;11.70;99.90;;;;;;5005819;28;20030;-76
2022/10/16 04:23:03;;;;;;;7.32;3.25;;;11.70;99.90;;;;;;5022722;28;20037;-80
2022/10/16 04:25:30;;;;;;;7.60;3.65;;;11.70;99.90;;;;;;5005848;28;20026;-76
2022/10/16 04:27:56;;;;;;;6.95;3.60;;;11.70;99.90;;;;;;5022880;28;20061;-78
2022/10/16 04:30:22;;;;;;;8.68;3.67;;;11.70;99.90;;;;;;5023302;28;20076;-77
2022/10/16 04:32:52;;;;;;;6.85;3.80;;;11.70;99.90;;;;;;5023392;28;20082;-78
2022/10/16 04:35:19;;;;;;;10.02;4.00;;;11.80;99.90;;;;;;5027270;28;20030;-77
2022/10/16 04:37:45;;;;;;;7.30;4.00;;;11.80;99.90;;;;;;5023297;28;20018;-77
2022/10/16 04:40:10;;;;;;;12.52;4.35;;;11.80;99.90;;;;;;5023077;28;20038;-78
2022/10/16 04:42:36;;;;;;;12.27;4.50;;;11.80;99.90;;;;;;5022869;28;20049;-79
2022/10/16 04:45:03;;;;;;;9.40;4.40;;;11.80;99.90;;;;;;5015510;28;20026;-80
2022/10/16 04:47:28;;;;;;;9.15;4.63;;;11.80;99.90;;;;;;5043309;28;20029;-78
2022/10/16 04:49:54;;;;;;;13.20;5.05;;;11.80;99.90;;;;;;5033233;28;20018;-81
2022/10/16 04:52:21;;;;;;;8.40;4.53;;;11.80;99.90;;;;;;5042144;28;20033;-76
2022/10/16 04:54:50;;;;;;;8.30;4.90;;;11.80;99.90;;;;;;5023337;28;20029;-77
2022/10/16 04:57:23;;;;;;;11.13;5.90;;;11.80;99.90;;;;;;5041961;28;20017;-80
2022/10/16 04:59:48;;;;;;;9.10;4.95;;;11.80;99.90;;;;;;5042770;28;20025;-76
2022/10/16 05:02:14;;;;;;;11.65;5.18;;;11.80;99.90;;;;;;5042389;28;20038;-78
2022/10/16 05:04:40;;;;;;;13.40;5.38;;;11.80;99.90;;;;;;5041107;28;20051;-78
2022/10/16 05:07:07;;;;;;;15.25;5.90;;;11.80;99.90;;;;;;5041673;28;20488;-80
2022/10/16 05:09:33;;;;;;;11.85;5.63;;;11.80;99.90;;;;;;5041769;28;20049;-79
2022/10/16 05:11:58;;;;;;;9.55;5.15;;;11.80;99.90;;;;;;5047914;28;20024;-80
2022/10/16 05:14:24;;;;;;;15.98;6.75;;;11.90;99.90;;;;;;5023223;28;20033;-78
2022/10/16 05:16:50;;;;;;;19.95;7.68;;;11.90;99.90;;;;;;5023774;28;20168;-79
2022/10/16 05:19:16;;;;;;;13.57;7.00;;;11.90;99.90;;;;;;5023710;28;20117;-80
2022/10/16 05:21:41;;;;;;;15.52;6.47;;;11.90;99.90;;;;;;5042539;28;20473;-80
2022/10/16 05:24:07;;;;;;;21.13;7.53;;;12.00;99.90;;;;;;5024316;28;20033;-79
2022/10/16 05:26:33;;;;;;;17.88;8.20;;;12.00;99.90;;;;;;5023795;28;20094;-79
2022/10/16 05:28:58;;;;;;;16.02;6.75;;;12.00;99.90;;;;;;5024109;28;20018;-79
2022/10/16 05:31:24;;;;;;;15.13;7.72;;;12.00;99.90;;;;;;5023717;28;20033;-79
2022/10/16 05:33:49;;;;;;;15.25;7.93;;;12.00;99.90;;;;;;5040772;28;20056;-76
2022/10/16 05:36:15;;;;;;;19.02;8.30;;;12.00;99.90;;;;;;5039954;28;20533;-76
2022/10/16 05:38:42;;;;;;;15.00;8.25;;;12.00;99.90;;;;;;5038465;28;20029;-77
2022/10/16 05:41:08;;;;;;;18.25;9.52;;;12.00;99.90;;;;;;5035263;28;20064;-75
2022/10/16 05:43:33;;;;;;;20.33;9.65;;;12.00;99.90;;;;;;5030224;28;20049;-75
2022/10/16 05:46:04;;;;;;;18.60;9.45;;;12.00;99.90;;;;;;5038986;28;20223;-75
2022/10/16 05:48:30;;;;;;;23.75;10.20;;;12.00;99.90;;;;;;5044739;28;20164;-75
2022/10/16 05:51:01;;;;;;;22.33;10.15;;;12.00;99.90;;;;;;5020733;28;20591;-73
2022/10/16 05:53:28;;;;;;;21.23;10.77;;;12.00;99.90;;;;;;5038480;28;20045;-75
2022/10/16 05:55:55;;;;;;;27.27;12.18;;;12.00;99.90;;;;;;5038937;28;20021;-74
2022/10/16 05:58:21;;;;;;;27.83;11.43;;;12.00;99.90;;;;;;5037210;28;20432;-76
2022/10/16 06:00:59;;;;;;;35.40;11.98;;;12.00;99.90;;;;;;5040400;28;20085;-75
2022/10/16 06:03:25;;;;;;;30.67;10.73;;;12.10;99.90;;;;;;5040477;28;20033;-75
2022/10/16 06:05:50;;;;;;;30.17;12.15;;;12.00;99.90;;;;;;5022931;28;20033;-74
2022/10/16 06:08:18;;;;;;;28.35;12.13;;;12.10;99.90;;;;;;5040834;28;20032;-74
2022/10/16 06:10:43;;;;;;;21.92;11.27;;;12.10;99.90;;;;;;5041585;28;20041;-75
2022/10/16 06:13:11;;;;;;;23.25;11.35;;;12.10;99.90;;;;;;5022920;28;20100;-75
2022/10/16 06:15:38;;;;;;;21.15;11.80;;;12.20;99.90;;;;;;5031640;28;20036;-75
2022/10/16 06:18:04;;;;;;;23.38;11.85;;;12.20;99.90;;;;;;5039352;28;20032;-76
2022/10/16 06:20:30;;;;;;;33.65;12.35;;;12.20;99.90;;;;;;5037655;28;20047;-76
2022/10/16 06:22:57;;;;;;;28.17;11.40;;;12.20;99.90;;;;;;5038075;28;20049;-75
2022/10/16 06:25:22;;;;;;;24.15;11.63;;;12.20;99.90;;;;;;5040614;28;20139;-76
2022/10/16 06:27:48;;;;;;;26.65;12.57;;;12.10;99.90;;;;;;5040666;28;20022;-74
2022/10/16 06:30:14;;;;;;;22.92;11.55;;;12.20;99.90;;;;;;5040851;28;20064;-77
2022/10/16 06:32:39;;;;;;;22.13;11.38;;;12.20;99.90;;;;;;5029771;28;20033;-77
2022/10/16 06:35:06;;;;;;;22.70;10.77;;;12.20;99.90;;;;;;5040487;28;20057;-75
2022/10/16 06:37:31;;;;;;;21.02;10.68;;;12.20;99.90;;;;;;5040912;28;20567;-77
2022/10/16 06:39:57;;;;;;;19.10;10.23;;;12.30;99.90;;;;;;5029601;28;20033;-77
2022/10/16 06:42:23;;;;;;;21.80;11.05;;;12.30;99.90;;;;;;5040615;28;20040;-74
2022/10/16 06:44:48;;;;;;;20.33;10.52;;;12.30;99.90;;;;;;5035987;28;20512;-75
2022/10/16 06:47:16;;;;;;;22.00;10.32;;;12.30;99.90;;;;;;5028083;28;20036;-76
2022/10/16 06:49:50;;;;;;;19.30;10.68;;;12.40;99.90;;;;;;5038510;28;20084;-75
2022/10/16 06:52:16;;;;;;;18.52;10.15;;;12.40;99.90;;;;;;5038107;28;20029;-75
2022/10/16 06:54:42;;;;;;;19.95;10.15;;;12.40;99.90;;;;;;5039544;28;20056;-76
2022/10/16 06:57:07;;;;;;;22.48;10.45;;;12.40;99.90;;;;;;5038349;28;20039;-75
2022/10/16 06:59:33;;;;;;;23.20;10.13;;;12.40;99.90;;;;;;5020589;28;20056;-76
2022/10/16 07:01:58;;;;;;;17.70;10.10;;;12.50;99.90;;;;;;5027526;28;20983;-77
2022/10/16 07:04:24;;;;;;;21.08;10.15;;;12.50;99.90;;;;;;5037532;28;20032;-76
2022/10/16 07:06:51;;;;;;;18.85;9.73;;;12.50;99.90;;;;;;5040727;28;20033;-75
2022/10/16 07:09:16;;;;;;;21.08;11.45;;;12.60;99.90;;;;;;5040140;28;20034;-76
2022/10/16 07:11:47;;;;;;;17.63;8.98;;;12.70;99.90;;;;;;5039613;28;20032;-74
2022/10/16 07:14:24;;;;;;;16.85;9.77;;;12.70;99.90;;;;;;5039613;28;20116;-76
2022/10/16 07:16:50;;;;;;;22.38;10.93;;;12.90;99.90;;;;;;5038751;28;20059;-81
2022/10/16 07:19:17;;;;;;;18.33;9.73;;;12.90;99.90;;;;;;5039794;28;20545;-75
2022/10/16 07:21:43;;;;;;;18.23;9.60;;;13.10;99.90;;;;;;5040020;28;20370;-76
2022/10/16 07:24:14;;;;;;;17.45;8.45;;;13.10;99.90;;;;;;5039373;28;20530;-74
2022/10/16 07:26:41;;;;;;;19.48;9.68;;;13.10;99.90;;;;;;5039971;28;20041;-74
2022/10/16 07:29:15;;;;;;;15.73;8.68;;;13.10;99.90;;;;;;5040938;28;20048;-74
2022/10/16 07:31:43;;;;;;;25.55;9.73;;;13.10;99.90;;;;;;5039318;28;20036;-79
2022/10/16 07:34:10;;;;;;;19.88;8.93;;;13.20;99.90;;;;;;5040394;28;20044;-74
2022/10/16 07:36:36;;;;;;;22.80;10.52;;;13.20;99.90;;;;;;5038065;28;20025;-76
2022/10/16 07:39:02;;;;;;;22.33;10.30;;;13.20;99.90;;;;;;5038991;28;20063;-77
2022/10/16 07:41:28;;;;;;;20.70;9.20;;;13.20;99.90;;;;;;5029856;28;20026;-79
2022/10/16 07:43:59;;;;;;;19.15;10.55;;;13.20;99.90;;;;;;5019139;28;20191;-77
2022/10/16 07:46:26;;;;;;;18.65;8.82;;;13.20;99.90;;;;;;5038798;28;20041;-73
2022/10/16 07:48:52;;;;;;;21.00;9.52;;;13.20;99.90;;;;;;5037425;28;20611;-77
2022/10/16 07:51:23;;;;;;;15.65;9.23;;;13.30;99.90;;;;;;5029692;28;20021;-74
2022/10/16 07:53:51;;;;;;;14.52;8.90;;;13.30;99.90;;;;;;5032211;28;20029;-77
2022/10/16 07:56:18;;;;;;;17.05;9.90;;;13.40;99.90;;;;;;5018561;28;20068;-75
2022/10/16 07:58:44;;;;;;;16.73;8.75;;;13.40;99.90;;;;;;5042544;28;20017;-75
2022/10/16 08:01:14;;;;;;;16.50;9.00;;;13.50;99.90;;;;;;5040491;28;20022;-76
2022/10/16 08:03:44;;;;;;;24.90;9.65;;;13.60;99.90;;;;;;5039732;28;20037;-77
2022/10/16 08:06:13;;;;;;;16.88;8.00;;;13.70;99.90;;;;;;5021902;28;20040;-80
2022/10/16 08:08:38;;;;;;;16.60;9.73;;;13.70;99.90;;;;;;5039694;28;20037;-82
2022/10/16 08:11:05;;;;;;;22.00;9.82;;;13.80;99.90;;;;;;5021543;28;20059;-77
2022/10/16 08:13:31;;;;;;;18.85;9.40;;;13.80;99.90;;;;;;5049153;28;20037;-77
2022/10/16 08:15:57;;;;;;;16.80;7.72;;;13.80;99.90;;;;;;5040854;28;20029;-74
2022/10/16 08:18:23;;;;;;;17.92;7.13;;;13.90;99.90;;;;;;5024455;28;20600;-78
2022/10/16 08:20:56;;;;;;;14.57;6.65;;;14.00;99.90;;;;;;5025629;28;20045;-77
2022/10/16 08:23:22;;;;;;;17.77;7.03;;;14.10;99.90;;;;;;5042244;28;20045;-77
2022/10/16 08:25:48;;;;;;;14.90;6.65;;;14.20;99.90;;;;;;5023610;28;20377;-77
2022/10/16 08:28:14;;;;;;;16.90;6.15;;;14.30;99.90;;;;;;5037929;28;20034;-76
2022/10/16 08:30:39;;;;;;;10.43;5.60;;;14.30;99.90;;;;;;5039351;28;20049;-81
2022/10/16 08:33:06;;;;;;;13.73;5.38;;;14.30;99.90;;;;;;5037233;28;20036;-75
2022/10/16 08:35:31;;;;;;;8.18;4.95;;;14.30;99.90;;;;;;5028037;28;20029;-78
2022/10/16 08:37:57;;;;;;;12.00;4.88;;;14.30;99.90;;;;;;5023268;28;20044;-80
2022/10/16 08:40:26;;;;;;;14.43;4.82;;;14.50;99.90;;;;;;5038387;28;20044;-76
2022/10/16 08:42:58;;;;;;;8.73;4.63;;;14.60;99.90;;;;;;5017200;28;20038;-79
2022/10/16 08:45:47;;;;;;;9.82;4.78;;;14.60;99.90;;;;;;5037497;28;21295;-76
2022/10/16 08:48:57;;;;;;;12.05;4.35;;;14.70;99.90;;;;;;5017366;28;20087;-81
2022/10/16 08:51:35;;;;;;;7.85;4.05;;;14.90;99.90;;;;;;5036616;28;20029;-78
2022/10/16 08:54:09;;;;;;;11.85;3.15;;;15.00;99.90;;;;;;5038575;28;20037;-75
2022/10/16 08:56:34;;;;;;;9.98;3.53;;;15.10;99.90;;;;;;5019614;28;20063;-78
2022/10/16 08:59:00;;;;;;;10.73;3.55;;;15.30;99.90;;;;;;5039408;28;20037;-77
2022/10/16 09:01:41;;;;;;;10.98;4.88;;;15.30;99.90;;;;;;5022631;28;20195;-77
2022/10/16 09:04:25;;;;;;;7.85;4.55;;;15.40;99.90;;;;;;5032015;28;20037;-75
2022/10/16 09:07:16;;;;;;;9.38;3.28;;;15.40;99.90;;;;;;5041943;28;20060;-77
2022/10/16 09:10:17;;;;;;;7.82;3.58;;;15.40;99.90;;;;;;5021107;28;20041;-76
2022/10/16 09:13:12;;;;;;;7.10;2.72;;;15.50;99.90;;;;;;5012832;28;20121;-77
2022/10/16 09:15:55;;;;;;;4.60;2.67;;;15.60;99.90;;;;;;5021981;28;20056;-78
2022/10/16 09:18:39;;;;;;;5.30;2.65;;;15.70;99.90;;;;;;5040385;28;20027;-77
2022/10/16 09:21:26;;;;;;;9.10;2.47;;;15.70;99.90;;;;;;5038988;28;20045;-78
2022/10/16 09:24:00;;;;;;;5.45;2.53;;;15.70;99.90;;;;;;5038226;28;20063;-76
2022/10/16 09:26:25;;;;;;;7.25;2.47;;;15.70;99.90;;;;;;5040912;28;20071;-80
2022/10/16 09:28:53;;;;;;;9.38;2.38;;;15.80;99.90;;;;;;5040980;28;20030;-84
2022/10/16 09:31:21;;;;;;;7.00;2.45;;;15.80;99.90;;;;;;5046557;28;20022;-78
2022/10/16 09:33:58;;;;;;;10.32;2.67;;;15.80;99.90;;;;;;5039781;28;20025;-87
2022/10/16 09:36:25;;;;;;;10.90;2.53;;;15.80;99.90;;;;;;5038960;28;20017;-74
2022/10/16 09:39:08;;;;;;;5.75;1.88;;;15.70;99.90;;;;;;5039968;28;20261;-76
2022/10/16 09:41:37;;;;;;;3.22;1.90;;;15.70;99.90;;;;;;5021584;28;20057;-74
2022/10/16 09:44:06;;;;;;;9.32;2.08;;;15.70;99.90;;;;;;5038846;28;20038;-75
2022/10/16 09:46:37;;;;;;;5.50;2.28;;;15.80;99.90;;;;;;5019089;28;20626;-75
2022/10/16 09:49:18;;;;;;;8.98;2.10;;;15.90;99.90;;;;;;5040394;28;20033;-77
2022/10/16 09:51:47;;;;;;;4.95;1.80;;;16.00;99.90;;;;;;5039733;28;20073;-74
2022/10/16 09:54:16;;;;;;;6.95;2.30;;;16.10;99.90;;;;;;5022519;28;20059;-76
2022/10/16 09:56:45;;;;;;;4.97;2.05;;;16.20;99.90;;;;;;5040133;28;20025;-79
2022/10/16 09:59:15;;;;;;;11.70;2.50;;;16.30;99.90;;;;;;5021301;28;20140;-75
2022/10/16 10:01:44;;;;;;;6.40;2.17;;;16.40;99.90;;;;;;5039839;28;20029;-79
2022/10/16 10:04:11;;;;;;;6.90;1.83;;;16.50;99.90;;;;;;5015664;28;20025;-80
2022/10/16 10:06:44;;;;;;;7.25;2.10;;;16.60;99.90;;;;;;5039241;28;20025;-79
2022/10/16 10:09:26;;;;;;;10.07;1.60;;;16.50;99.90;;;;;;5034557;28;20041;-79
2022/10/16 10:11:59;;;;;;;5.15;1.65;;;16.60;99.90;;;;;;5036073;28;20037;-77
2022/10/16 10:14:37;;;;;;;9.68;1.88;;;16.60;99.90;;;;;;5038274;28;20029;-78
2022/10/16 10:17:11;;;;;;;3.80;1.60;;;16.70;99.90;;;;;;5039429;28;20034;-75
2022/10/16 10:19:55;;;;;;;7.28;2.15;;;16.80;99.90;;;;;;5037634;28;20081;-74
2022/10/16 10:22:46;;;;;;;4.13;1.75;;;16.90;99.90;;;;;;5033082;28;20060;-74
2022/10/16 10:25:12;;;;;;;4.95;1.20;;;17.00;99.90;;;;;;5016455;28;20025;-78
2022/10/16 10:28:05;;;;;;;6.60;1.65;;;17.10;99.90;;;;;;5037103;28;20364;-75
2022/10/16 10:30:54;;;;;;;5.03;1.77;;;17.20;99.90;;;;;;5033116;28;20145;-74
2022/10/16 10:33:28;;;;;;;6.70;1.75;;;17.20;99.90;;;;;;5034460;28;20021;-77
2022/10/16 10:36:09;;;;;;;4.18;1.48;;;17.20;99.90;;;;;;5016354;28;20025;-77
2022/10/16 10:38:51;;;;;;;4.93;1.67;;;17.30;99.90;;;;;;5032148;28;20033;-78
2022/10/16 10:41:26;;;;;;;4.13;1.20;;;17.40;99.90;;;;;;5032403;28;20029;-78
2022/10/16 10:44:30;;;;;;;3.38;1.38;;;17.50;99.90;;;;;;5033883;28;20038;-81
2022/10/16 10:47:34;;;;;;;4.50;1.37;;;17.70;99.90;;;;;;5033490;28;20188;-79
2022/10/16 10:50:18;;;;;;;7.63;1.60;;;17.90;99.90;;;;;;5032131;28;20288;-77
2022/10/16 10:53:06;;;;;;;10.05;1.60;;;18.00;99.90;;;;;;5031305;28;20040;-75
2022/10/16 10:56:00;;;;;;;3.42;1.10;;;18.00;99.90;;;;;;5027920;28;20040;-77
2022/10/16 10:59:04;;;;;;;12.10;2.08;;;18.00;99.90;;;;;;5024916;28;20053;-74
2022/10/16 11:01:56;;;;;;;2.75;1.00;;;18.00;99.90;;;;;;5016219;28;20112;-80
2022/10/16 11:04:58;;;;;;;5.47;0.93;;;18.10;99.90;;;;;;5012854;28;20866;-77
2022/10/16 11:07:37;;;;;;;5.18;1.33;;;18.10;99.90;;;;;;5046379;28;20071;-78
2022/10/16 11:10:26;;;;;;;3.45;0.93;;;18.20;99.90;;;;;;5033098;28;20124;-76
2022/10/16 11:12:58;;;;;;;4.40;1.30;;;18.30;99.90;;;;;;5033820;28;20030;-79
2022/10/16 11:15:32;;;;;;;5.25;1.10;;;18.30;99.90;;;;;;5036170;28;20026;-82
2022/10/16 11:18:08;;;;;;;8.25;1.60;;;18.40;99.90;;;;;;5038007;28;20024;-76
2022/10/16 11:21:01;;;;;;;4.45;1.35;;;18.30;99.90;;;;;;5040019;28;20041;-79
2022/10/16 11:23:54;;;;;;;3.47;0.80;;;18.30;99.90;;;;;;5039251;28;20037;-80
2022/10/16 11:26:25;;;;;;;4.80;1.15;;;18.50;99.90;;;;;;5034171;28;20053;-77
2022/10/16 11:28:54;;;;;;;6.40;1.52;;;18.40;99.90;;;;;;5042582;28;20025;-76
2022/10/16 11:31:39;;;;;;;9.48;1.58;;;18.50;99.90;;;;;;5041302;28;20057;-80
2022/10/16 11:34:22;;;;;;;6.90;1.50;;;18.60;99.90;;;;;;5039646;28;20036;-76
2022/10/16 11:37:11;;;;;;;8.45;1.50;;;18.60;99.90;;;;;;5037091;28;20033;-77
2022/10/16 11:39:39;;;;;;;5.85;2.05;;;18.90;99.90;;;;;;5044043;28;20040;-83
2022/10/16 11:42:13;;;;;;;7.28;1.83;;;19.00;99.90;;;;;;5025562;28;20064;-77
2022/10/16 11:44:39;;;;;;;;;;;18.90;99.90;;;;;;5023539;28;20048;-77
2022/10/16 11:47:31;;;;;;;7.57;1.95;;;18.80;99.90;;;;;;5044498;28;19917;-78
2022/10/16 11:50:02;;;;;;;8.15;2.13;;;18.90;99.90;;;;;;5044398;28;20021;-75
2022/10/16 11:52:44;;;;;;;6.32;1.35;;;19.30;99.90;;;;;;5044257;28;20116;-76
2022/10/16 11:55:17;;;;;;;5.90;1.27;;;19.70;99.90;;;;;;5041710;28;20030;-79
2022/10/16 11:57:57;;;;;;;6.27;1.40;;;19.50;99.90;;;;;;5043399;28;20084;-77
2022/10/16 12:00:28;;;;;;;2.58;1.23;;;19.10;99.90;;;;;;5042323;28;20332;-78
2022/10/16 12:03:03;;;;;;;4.07;1.33;;;18.80;99.90;;;;;;5018326;28;20037;-77
2022/10/16 12:05:53;;;;;;;7.00;1.30;;;18.80;99.90;;;;;;5033405;28;20014;-79
2022/10/16 12:08:19;;;;;;;10.98;1.38;;;19.30;99.90;;;;;;5042271;28;20021;-71
2022/10/16 12:10:47;;;;;;;5.85;1.30;;;19.80;99.90;;;;;;5050446;28;20032;-77
2022/10/16 12:13:35;;;;;;;5.50;0.90;;;19.80;99.90;;;;;;5026785;28;20018;-75
2022/10/16 12:16:07;;;;;;;3.45;1.30;;;19.70;99.90;;;;;;5042328;28;20033;-78
2022/10/16 12:18:33;;;;;;;3.55;1.20;;;19.50;99.90;;;;;;5042769;28;20304;-77
2022/10/16 12:21:05;;;;;;;3.38;1.20;;;19.20;99.90;;;;;;5044040;28;20021;-77
2022/10/16 12:23:37;;;;;;;6.97;1.48;;;18.90;99.90;;;;;;5043641;28;20069;-77
2022/10/16 12:26:03;;;;;;;8.77;1.45;;;18.60;99.90;;;;;;5042581;28;20021;-76
2022/10/16 12:28:31;;;;;;;7.45;1.52;;;18.40;99.90;;;;;;5042662;28;20024;-83
2022/10/16 12:31:06;;;;;;;3.90;1.20;;;18.20;99.90;;;;;;5023427;28;20017;-80
2022/10/16 12:33:41;;;;;;;6.95;1.30;;;18.30;99.90;;;;;;5025443;28;20029;-80
2022/10/16 12:36:29;;;;;;;4.40;1.02;;;18.20;99.90;;;;;;5050162;28;20026;-78
2022/10/16 12:38:54;;;;;;;4.65;1.30;;;18.20;99.90;;;;;;5042298;28;20041;-82
2022/10/16 12:41:35;;;;;;;8.40;1.42;;;18.10;99.90;;;;;;5024923;28;20033;-77
2022/10/16 12:44:21;;;;;;;9.38;1.20;;;18.10;99.90;;;;;;5033382;28;20179;-83
2022/10/16 12:46:47;;;;;;;3.63;1.15;;;18.00;99.90;;;;;;5033976;28;20057;-75
2022/10/16 12:49:12;;;;;;;5.38;1.33;;;18.00;99.90;;;;;;5043237;28;20091;-76
2022/10/16 12:51:39;;;;;;;4.07;1.00;;;18.00;99.90;;;;;;5043325;28;20021;-76
2022/10/16 12:54:20;;;;;;;6.50;1.02;;;18.30;99.90;;;;;;5025035;28;20021;-77
2022/10/16 12:56:51;;;;;;;4.60;1.17;;;18.80;99.90;;;;;;5038498;28;20070;-80
2022/10/16 12:59:21;;;;;;;3.63;1.13;;;19.40;99.90;;;;;;5039302;28;20041;-83
2022/10/16 13:02:25;;;;;;;7.90;1.30;;;19.80;99.90;;;;;;5026545;28;20037;-83
2022/10/16 13:05:12;;;;;;;3.22;1.02;;;20.10;99.90;;;;;;5047627;28;20030;-79